sensor_id;sensor_type;location;lat;lon;timestamp;P1;durP1;ratioP1;P2;durP2;ratioP2
49392;SDS011;35268;42.642;23.308;2023-03-29T00:00:11;4.25;;;2.60;;
49392;SDS011;35268;42.642;23.308;2023-03-29T00:02:40;3.60;;;2.28;;
49392;SDS011;35268;42.642;23.308;2023-03-29T00:05:06;9.23;;;2.47;;
49392;SDS011;35268;42.642;23.308;2023-03-29T00:07:33;4.28;;;2.90;;
49392;SDS011;35268;42.642;23.308;2023-03-29T00:09:59;6.05;;;2.90;;
49392;SDS011;35268;42.642;23.308;2023-03-29T00:12:25;3.67;;;2.40;;
49392;SDS011;35268;42.642;23.308;2023-03-29T00:14:51;6.75;;;2.90;;
49392;SDS011;35268;42.642;23.308;2023-03-29T00:17:16;8.55;;;2.50;;
49392;SDS011;35268;42.642;23.308;2023-03-29T00:19:45;8.73;;;2.60;;
49392;SDS011;35268;42.642;23.308;2023-03-29T00:22:11;4.13;;;2.63;;
49392;SDS011;35268;42.642;23.308;2023-03-29T00:24:37;5.32;;;2.38;;
49392;SDS011;35268;42.642;23.308;2023-03-29T00:27:03;10.20;;;2.83;;
49392;SDS011;35268;42.642;23.308;2023-03-29T00:29:28;9.85;;;3.13;;
49392;SDS011;35268;42.642;23.308;2023-03-29T00:31:54;6.68;;;2.65;;
49392;SDS011;35268;42.642;23.308;2023-03-29T00:34:23;5.18;;;2.50;;
49392;SDS011;35268;42.642;23.308;2023-03-29T00:36:51;4.80;;;2.90;;
49392;SDS011;35268;42.642;23.308;2023-03-29T00:39:17;4.47;;;2.65;;
49392;SDS011;35268;42.642;23.308;2023-03-29T00:41:44;5.40;;;2.55;;
49392;SDS011;35268;42.642;23.308;2023-03-29T00:47:13;4.97;;;2.60;;
49392;SDS011;35268;42.642;23.308;2023-03-29T00:49:40;5.90;;;2.42;;
49392;SDS011;35268;42.642;23.308;2023-03-29T00:52:05;13.68;;;3.00;;
49392;SDS011;35268;42.642;23.308;2023-03-29T00:54:32;4.32;;;2.85;;
49392;SDS011;35268;42.642;23.308;2023-03-29T00:57:01;5.65;;;2.92;;
49392;SDS011;35268;42.642;23.308;2023-03-29T00:59:28;4.25;;;2.35;;
49392;SDS011;35268;42.642;23.308;2023-03-29T01:01:57;5.00;;;2.53;;
49392;SDS011;35268;42.642;23.308;2023-03-29T01:07:05;5.07;;;2.17;;
49392;SDS011;35268;42.642;23.308;2023-03-29T01:09:37;5.20;;;2.80;;
49392;SDS011;35268;42.642;23.308;2023-03-29T01:12:07;8.73;;;2.97;;
49392;SDS011;35268;42.642;23.308;2023-03-29T01:15:05;4.40;;;2.63;;
49392;SDS011;35268;42.642;23.308;2023-03-29T01:17:37;4.15;;;2.63;;
49392;SDS011;35268;42.642;23.308;2023-03-29T01:20:09;5.80;;;2.35;;
49392;SDS011;35268;42.642;23.308;2023-03-29T01:22:49;3.35;;;2.20;;
49392;SDS011;35268;42.642;23.308;2023-03-29T01:28:53;4.65;;;3.05;;
49392;SDS011;35268;42.642;23.308;2023-03-29T01:31:24;5.63;;;2.40;;
49392;SDS011;35268;42.642;23.308;2023-03-29T01:33:54;6.40;;;3.10;;
49392;SDS011;35268;42.642;23.308;2023-03-29T01:36:28;10.13;;;2.55;;
49392;SDS011;35268;42.642;23.308;2023-03-29T01:39:01;5.38;;;2.35;;
49392;SDS011;35268;42.642;23.308;2023-03-29T01:44:20;4.47;;;2.60;;
49392;SDS011;35268;42.642;23.308;2023-03-29T01:46:59;5.00;;;2.60;;
49392;SDS011;35268;42.642;23.308;2023-03-29T01:50:08;4.30;;;2.38;;
49392;SDS011;35268;42.642;23.308;2023-03-29T01:52:51;5.30;;;2.55;;
49392;SDS011;35268;42.642;23.308;2023-03-29T01:55:24;4.28;;;2.67;;
49392;SDS011;35268;42.642;23.308;2023-03-29T01:57:56;5.78;;;2.53;;
49392;SDS011;35268;42.642;23.308;2023-03-29T02:00:24;4.13;;;3.03;;
49392;SDS011;35268;42.642;23.308;2023-03-29T02:02:52;4.05;;;2.60;;
49392;SDS011;35268;42.642;23.308;2023-03-29T02:05:20;5.38;;;2.28;;
49392;SDS011;35268;42.642;23.308;2023-03-29T02:07:48;4.50;;;2.45;;
49392;SDS011;35268;42.642;23.308;2023-03-29T02:10:14;4.85;;;2.83;;
49392;SDS011;35268;42.642;23.308;2023-03-29T02:12:41;7.03;;;1.98;;
49392;SDS011;35268;42.642;23.308;2023-03-29T02:15:13;4.95;;;2.00;;
49392;SDS011;35268;42.642;23.308;2023-03-29T02:17:41;3.45;;;2.40;;
49392;SDS011;35268;42.642;23.308;2023-03-29T02:20:22;3.15;;;1.95;;
49392;SDS011;35268;42.642;23.308;2023-03-29T02:25:28;3.45;;;2.42;;
49392;SDS011;35268;42.642;23.308;2023-03-29T02:27:54;5.90;;;2.47;;
49392;SDS011;35268;42.642;23.308;2023-03-29T02:30:22;2.83;;;2.20;;
49392;SDS011;35268;42.642;23.308;2023-03-29T02:35:55;5.25;;;2.28;;
49392;SDS011;35268;42.642;23.308;2023-03-29T02:38:25;6.22;;;2.83;;
49392;SDS011;35268;42.642;23.308;2023-03-29T02:40:52;6.70;;;2.25;;
49392;SDS011;35268;42.642;23.308;2023-03-29T02:43:19;6.43;;;2.45;;
49392;SDS011;35268;42.642;23.308;2023-03-29T02:45:47;4.10;;;2.30;;
49392;SDS011;35268;42.642;23.308;2023-03-29T02:48:14;5.70;;;2.20;;
49392;SDS011;35268;42.642;23.308;2023-03-29T02:50:44;2.97;;;2.17;;
49392;SDS011;35268;42.642;23.308;2023-03-29T02:53:17;4.20;;;2.67;;
49392;SDS011;35268;42.642;23.308;2023-03-29T02:55:47;4.03;;;2.58;;
49392;SDS011;35268;42.642;23.308;2023-03-29T02:58:12;8.73;;;2.53;;
49392;SDS011;35268;42.642;23.308;2023-03-29T03:00:40;3.15;;;2.33;;
49392;SDS011;35268;42.642;23.308;2023-03-29T03:03:09;7.88;;;2.85;;
49392;SDS011;35268;42.642;23.308;2023-03-29T03:05:36;6.80;;;2.15;;
49392;SDS011;35268;42.642;23.308;2023-03-29T03:08:02;5.90;;;1.85;;
49392;SDS011;35268;42.642;23.308;2023-03-29T03:10:31;6.07;;;2.47;;
49392;SDS011;35268;42.642;23.308;2023-03-29T03:13:00;5.40;;;2.50;;
49392;SDS011;35268;42.642;23.308;2023-03-29T03:15:25;3.53;;;2.30;;
49392;SDS011;35268;42.642;23.308;2023-03-29T03:17:51;5.07;;;2.15;;
49392;SDS011;35268;42.642;23.308;2023-03-29T03:20:17;4.82;;;2.25;;
49392;SDS011;35268;42.642;23.308;2023-03-29T03:22:46;4.25;;;2.03;;
49392;SDS011;35268;42.642;23.308;2023-03-29T03:25:15;3.97;;;2.40;;
49392;SDS011;35268;42.642;23.308;2023-03-29T03:27:43;4.38;;;2.55;;
49392;SDS011;35268;42.642;23.308;2023-03-29T03:30:09;4.57;;;2.10;;
49392;SDS011;35268;42.642;23.308;2023-03-29T03:32:35;4.28;;;2.00;;
49392;SDS011;35268;42.642;23.308;2023-03-29T03:35:01;8.48;;;2.10;;
49392;SDS011;35268;42.642;23.308;2023-03-29T03:37:28;5.43;;;2.22;;
49392;SDS011;35268;42.642;23.308;2023-03-29T03:39:54;7.13;;;2.45;;
49392;SDS011;35268;42.642;23.308;2023-03-29T03:42:19;4.07;;;2.05;;
49392;SDS011;35268;42.642;23.308;2023-03-29T03:44:45;4.15;;;2.42;;
49392;SDS011;35268;42.642;23.308;2023-03-29T03:47:11;3.65;;;2.00;;
49392;SDS011;35268;42.642;23.308;2023-03-29T03:49:40;4.10;;;1.58;;
49392;SDS011;35268;42.642;23.308;2023-03-29T03:52:06;4.25;;;2.00;;
49392;SDS011;35268;42.642;23.308;2023-03-29T03:54:32;3.13;;;2.10;;
49392;SDS011;35268;42.642;23.308;2023-03-29T03:56:58;3.72;;;1.60;;
49392;SDS011;35268;42.642;23.308;2023-03-29T03:59:24;4.22;;;1.95;;
49392;SDS011;35268;42.642;23.308;2023-03-29T04:01:49;3.55;;;1.85;;
49392;SDS011;35268;42.642;23.308;2023-03-29T04:04:14;4.32;;;2.28;;
49392;SDS011;35268;42.642;23.308;2023-03-29T04:06:40;4.72;;;1.73;;
49392;SDS011;35268;42.642;23.308;2023-03-29T04:09:08;3.80;;;1.77;;
49392;SDS011;35268;42.642;23.308;2023-03-29T04:11:33;4.38;;;1.75;;
49392;SDS011;35268;42.642;23.308;2023-03-29T04:13:59;2.17;;;1.60;;
49392;SDS011;35268;42.642;23.308;2023-03-29T04:16:25;4.70;;;1.60;;
49392;SDS011;35268;42.642;23.308;2023-03-29T04:18:51;5.82;;;1.88;;
49392;SDS011;35268;42.642;23.308;2023-03-29T04:21:17;2.90;;;1.70;;
49392;SDS011;35268;42.642;23.308;2023-03-29T04:23:42;5.20;;;1.45;;
49392;SDS011;35268;42.642;23.308;2023-03-29T04:26:10;2.13;;;1.33;;
49392;SDS011;35268;42.642;23.308;2023-03-29T04:28:37;3.40;;;1.95;;
49392;SDS011;35268;42.642;23.308;2023-03-29T04:31:03;6.65;;;1.98;;
49392;SDS011;35268;42.642;23.308;2023-03-29T04:33:29;6.55;;;2.13;;
49392;SDS011;35268;42.642;23.308;2023-03-29T04:35:55;2.60;;;1.35;;
49392;SDS011;35268;42.642;23.308;2023-03-29T04:38:21;2.53;;;1.40;;
49392;SDS011;35268;42.642;23.308;2023-03-29T04:40:47;5.55;;;2.45;;
49392;SDS011;35268;42.642;23.308;2023-03-29T04:43:13;7.45;;;1.73;;
49392;SDS011;35268;42.642;23.308;2023-03-29T04:45:39;2.70;;;1.67;;
49392;SDS011;35268;42.642;23.308;2023-03-29T04:48:05;6.32;;;1.80;;
49392;SDS011;35268;42.642;23.308;2023-03-29T04:50:30;2.92;;;1.73;;
49392;SDS011;35268;42.642;23.308;2023-03-29T04:52:56;3.22;;;2.20;;
49392;SDS011;35268;42.642;23.308;2023-03-29T04:55:24;3.53;;;1.60;;
49392;SDS011;35268;42.642;23.308;2023-03-29T04:57:50;6.20;;;2.05;;
49392;SDS011;35268;42.642;23.308;2023-03-29T05:00:17;6.00;;;2.05;;
49392;SDS011;35268;42.642;23.308;2023-03-29T05:02:44;3.53;;;1.70;;
49392;SDS011;35268;42.642;23.308;2023-03-29T05:05:10;3.83;;;1.70;;
49392;SDS011;35268;42.642;23.308;2023-03-29T05:07:36;3.95;;;1.75;;
49392;SDS011;35268;42.642;23.308;2023-03-29T05:10:02;3.13;;;1.60;;
49392;SDS011;35268;42.642;23.308;2023-03-29T05:12:29;6.35;;;1.83;;
49392;SDS011;35268;42.642;23.308;2023-03-29T05:14:54;3.58;;;1.85;;
49392;SDS011;35268;42.642;23.308;2023-03-29T05:17:20;5.97;;;1.92;;
49392;SDS011;35268;42.642;23.308;2023-03-29T05:19:46;3.70;;;2.28;;
49392;SDS011;35268;42.642;23.308;2023-03-29T05:22:12;5.47;;;1.60;;
49392;SDS011;35268;42.642;23.308;2023-03-29T05:24:38;8.98;;;3.38;;
49392;SDS011;35268;42.642;23.308;2023-03-29T05:27:03;6.82;;;2.35;;
49392;SDS011;35268;42.642;23.308;2023-03-29T05:29:29;8.82;;;2.63;;
49392;SDS011;35268;42.642;23.308;2023-03-29T05:31:56;4.05;;;2.08;;
49392;SDS011;35268;42.642;23.308;2023-03-29T05:34:23;5.30;;;2.08;;
49392;SDS011;35268;42.642;23.308;2023-03-29T05:36:49;4.60;;;2.72;;
49392;SDS011;35268;42.642;23.308;2023-03-29T05:39:15;4.38;;;2.10;;
49392;SDS011;35268;42.642;23.308;2023-03-29T05:41:41;7.30;;;1.98;;
49392;SDS011;35268;42.642;23.308;2023-03-29T05:44:06;3.67;;;2.13;;
49392;SDS011;35268;42.642;23.308;2023-03-29T05:46:32;8.40;;;2.20;;
49392;SDS011;35268;42.642;23.308;2023-03-29T05:48:58;3.67;;;2.30;;
49392;SDS011;35268;42.642;23.308;2023-03-29T05:51:23;6.80;;;1.92;;
49392;SDS011;35268;42.642;23.308;2023-03-29T05:53:49;2.90;;;1.63;;
49392;SDS011;35268;42.642;23.308;2023-03-29T05:56:15;3.42;;;2.30;;
49392;SDS011;35268;42.642;23.308;2023-03-29T05:58:41;3.40;;;2.00;;
49392;SDS011;35268;42.642;23.308;2023-03-29T06:01:11;7.78;;;3.05;;
49392;SDS011;35268;42.642;23.308;2023-03-29T06:03:38;12.82;;;4.20;;
49392;SDS011;35268;42.642;23.308;2023-03-29T06:06:04;6.65;;;2.92;;
49392;SDS011;35268;42.642;23.308;2023-03-29T06:08:30;8.85;;;2.03;;
49392;SDS011;35268;42.642;23.308;2023-03-29T06:11:01;7.13;;;1.88;;
49392;SDS011;35268;42.642;23.308;2023-03-29T06:13:29;7.97;;;2.30;;
49392;SDS011;35268;42.642;23.308;2023-03-29T06:15:56;4.40;;;1.92;;
49392;SDS011;35268;42.642;23.308;2023-03-29T06:18:21;4.53;;;1.95;;
49392;SDS011;35268;42.642;23.308;2023-03-29T06:20:50;2.05;;;1.42;;
49392;SDS011;35268;42.642;23.308;2023-03-29T06:23:20;2.97;;;1.58;;
49392;SDS011;35268;42.642;23.308;2023-03-29T06:25:46;1.98;;;1.30;;
49392;SDS011;35268;42.642;23.308;2023-03-29T06:28:13;2.38;;;1.55;;
49392;SDS011;35268;42.642;23.308;2023-03-29T06:30:42;4.10;;;1.73;;
49392;SDS011;35268;42.642;23.308;2023-03-29T06:33:08;4.22;;;1.35;;
49392;SDS011;35268;42.642;23.308;2023-03-29T06:35:34;3.47;;;2.17;;
49392;SDS011;35268;42.642;23.308;2023-03-29T06:38:01;3.55;;;1.63;;
49392;SDS011;35268;42.642;23.308;2023-03-29T06:40:27;2.20;;;1.30;;
49392;SDS011;35268;42.642;23.308;2023-03-29T06:42:53;4.03;;;1.65;;
49392;SDS011;35268;42.642;23.308;2023-03-29T06:45:23;3.22;;;1.80;;
49392;SDS011;35268;42.642;23.308;2023-03-29T06:47:50;3.90;;;2.42;;
49392;SDS011;35268;42.642;23.308;2023-03-29T06:50:15;6.75;;;1.85;;
49392;SDS011;35268;42.642;23.308;2023-03-29T06:52:41;3.03;;;1.58;;
49392;SDS011;35268;42.642;23.308;2023-03-29T06:55:08;3.20;;;1.33;;
49392;SDS011;35268;42.642;23.308;2023-03-29T06:57:35;3.08;;;1.40;;
49392;SDS011;35268;42.642;23.308;2023-03-29T07:00:00;2.78;;;1.55;;
49392;SDS011;35268;42.642;23.308;2023-03-29T07:02:30;1.92;;;1.17;;
49392;SDS011;35268;42.642;23.308;2023-03-29T07:04:55;3.22;;;1.35;;
49392;SDS011;35268;42.642;23.308;2023-03-29T07:07:21;2.47;;;1.30;;
49392;SDS011;35268;42.642;23.308;2023-03-29T07:09:46;4.45;;;1.30;;
49392;SDS011;35268;42.642;23.308;2023-03-29T07:12:17;2.50;;;1.33;;
49392;SDS011;35268;42.642;23.308;2023-03-29T07:14:46;3.67;;;1.63;;
49392;SDS011;35268;42.642;23.308;2023-03-29T07:17:12;3.90;;;1.75;;
49392;SDS011;35268;42.642;23.308;2023-03-29T07:19:38;3.40;;;1.70;;
49392;SDS011;35268;42.642;23.308;2023-03-29T07:22:04;2.13;;;1.15;;
49392;SDS011;35268;42.642;23.308;2023-03-29T07:24:29;3.70;;;1.55;;
49392;SDS011;35268;42.642;23.308;2023-03-29T07:26:55;5.50;;;1.30;;
49392;SDS011;35268;42.642;23.308;2023-03-29T07:29:22;4.05;;;1.70;;
49392;SDS011;35268;42.642;23.308;2023-03-29T07:31:48;2.72;;;1.40;;
49392;SDS011;35268;42.642;23.308;2023-03-29T07:34:14;7.00;;;1.30;;
49392;SDS011;35268;42.642;23.308;2023-03-29T07:36:41;2.80;;;1.45;;
49392;SDS011;35268;42.642;23.308;2023-03-29T07:39:07;5.95;;;1.80;;
49392;SDS011;35268;42.642;23.308;2023-03-29T07:41:33;2.78;;;1.30;;
49392;SDS011;35268;42.642;23.308;2023-03-29T07:43:59;2.45;;;1.30;;
49392;SDS011;35268;42.642;23.308;2023-03-29T07:46:31;3.03;;;1.53;;
49392;SDS011;35268;42.642;23.308;2023-03-29T07:48:56;2.83;;;1.58;;
49392;SDS011;35268;42.642;23.308;2023-03-29T07:51:22;1.67;;;0.98;;
49392;SDS011;35268;42.642;23.308;2023-03-29T07:53:48;3.35;;;1.27;;
49392;SDS011;35268;42.642;23.308;2023-03-29T07:56:14;6.05;;;1.30;;
49392;SDS011;35268;42.642;23.308;2023-03-29T07:58:39;2.75;;;1.35;;
49392;SDS011;35268;42.642;23.308;2023-03-29T08:01:05;3.63;;;1.55;;
49392;SDS011;35268;42.642;23.308;2023-03-29T08:03:32;4.13;;;1.67;;
49392;SDS011;35268;42.642;23.308;2023-03-29T08:06:00;2.72;;;1.17;;
49392;SDS011;35268;42.642;23.308;2023-03-29T08:08:27;2.60;;;1.30;;
49392;SDS011;35268;42.642;23.308;2023-03-29T08:10:52;3.33;;;1.58;;
49392;SDS011;35268;42.642;23.308;2023-03-29T08:13:18;6.00;;;1.38;;
49392;SDS011;35268;42.642;23.308;2023-03-29T08:15:43;4.00;;;1.42;;
49392;SDS011;35268;42.642;23.308;2023-03-29T08:18:12;5.78;;;1.60;;
49392;SDS011;35268;42.642;23.308;2023-03-29T08:20:37;3.17;;;1.52;;
49392;SDS011;35268;42.642;23.308;2023-03-29T08:23:03;2.35;;;1.25;;
49392;SDS011;35268;42.642;23.308;2023-03-29T08:25:29;2.40;;;1.08;;
49392;SDS011;35268;42.642;23.308;2023-03-29T08:27:54;6.68;;;1.23;;
49392;SDS011;35268;42.642;23.308;2023-03-29T08:30:20;4.97;;;1.00;;
49392;SDS011;35268;42.642;23.308;2023-03-29T08:32:45;3.30;;;1.25;;
49392;SDS011;35268;42.642;23.308;2023-03-29T08:35:11;2.60;;;1.20;;
49392;SDS011;35268;42.642;23.308;2023-03-29T08:37:37;5.80;;;1.55;;
49392;SDS011;35268;42.642;23.308;2023-03-29T08:40:02;1.27;;;0.88;;
49392;SDS011;35268;42.642;23.308;2023-03-29T08:42:32;2.55;;;0.70;;
49392;SDS011;35268;42.642;23.308;2023-03-29T08:50:37;2.03;;;0.95;;
49392;SDS011;35268;42.642;23.308;2023-03-29T08:53:15;3.95;;;1.40;;
49392;SDS011;35268;42.642;23.308;2023-03-29T08:55:46;5.18;;;1.45;;
49392;SDS011;35268;42.642;23.308;2023-03-29T08:58:16;3.13;;;1.25;;
49392;SDS011;35268;42.642;23.308;2023-03-29T09:00:49;5.43;;;1.08;;
49392;SDS011;35268;42.642;23.308;2023-03-29T09:03:22;6.35;;;1.15;;
49392;SDS011;35268;42.642;23.308;2023-03-29T09:05:50;6.75;;;1.27;;
49392;SDS011;35268;42.642;23.308;2023-03-29T09:08:20;5.38;;;3.30;;
49392;SDS011;35268;42.642;23.308;2023-03-29T09:10:47;2.33;;;1.00;;
49392;SDS011;35268;42.642;23.308;2023-03-29T09:14:07;2.00;;;0.95;;
49392;SDS011;35268;42.642;23.308;2023-03-29T09:18:57;2.50;;;1.02;;
49392;SDS011;35268;42.642;23.308;2023-03-29T09:27:13;3.30;;;0.95;;
49392;SDS011;35268;42.642;23.308;2023-03-29T09:35:33;2.25;;;0.88;;
49392;SDS011;35268;42.642;23.308;2023-03-29T09:38:02;2.78;;;1.25;;
49392;SDS011;35268;42.642;23.308;2023-03-29T09:40:41;1.52;;;0.98;;
49392;SDS011;35268;42.642;23.308;2023-03-29T09:43:15;1.42;;;0.63;;
49392;SDS011;35268;42.642;23.308;2023-03-29T09:45:54;2.35;;;0.95;;
49392;SDS011;35268;42.642;23.308;2023-03-29T09:48:22;2.30;;;1.00;;
49392;SDS011;35268;42.642;23.308;2023-03-29T09:50:50;3.53;;;1.02;;
49392;SDS011;35268;42.642;23.308;2023-03-29T09:53:16;3.55;;;1.48;;
49392;SDS011;35268;42.642;23.308;2023-03-29T09:55:44;3.53;;;0.93;;
49392;SDS011;35268;42.642;23.308;2023-03-29T09:58:15;3.42;;;1.17;;
49392;SDS011;35268;42.642;23.308;2023-03-29T10:00:44;3.40;;;1.35;;
49392;SDS011;35268;42.642;23.308;2023-03-29T10:03:23;2.65;;;1.13;;
49392;SDS011;35268;42.642;23.308;2023-03-29T10:05:51;2.58;;;1.08;;
49392;SDS011;35268;42.642;23.308;2023-03-29T10:08:30;4.32;;;1.23;;
49392;SDS011;35268;42.642;23.308;2023-03-29T10:13:47;1.70;;;0.90;;
49392;SDS011;35268;42.642;23.308;2023-03-29T10:16:22;3.95;;;1.25;;
49392;SDS011;35268;42.642;23.308;2023-03-29T10:18:52;9.38;;;1.13;;
49392;SDS011;35268;42.642;23.308;2023-03-29T10:21:19;4.95;;;1.73;;
49392;SDS011;35268;42.642;23.308;2023-03-29T10:23:45;7.28;;;1.10;;
49392;SDS011;35268;42.642;23.308;2023-03-29T10:26:53;5.35;;;1.08;;
49392;SDS011;35268;42.642;23.308;2023-03-29T10:29:02;3.75;;;1.20;;
49392;SDS011;35268;42.642;23.308;2023-03-29T10:31:31;4.63;;;1.02;;
49392;SDS011;35268;42.642;23.308;2023-03-29T10:34:01;2.05;;;1.02;;
49392;SDS011;35268;42.642;23.308;2023-03-29T10:36:28;5.55;;;1.10;;
49392;SDS011;35268;42.642;23.308;2023-03-29T10:38:58;4.10;;;1.17;;
49392;SDS011;35268;42.642;23.308;2023-03-29T10:41:26;3.15;;;1.15;;
49392;SDS011;35268;42.642;23.308;2023-03-29T10:43:53;3.47;;;1.05;;
49392;SDS011;35268;42.642;23.308;2023-03-29T10:51:22;2.38;;;1.02;;
49392;SDS011;35268;42.642;23.308;2023-03-29T10:53:48;3.38;;;1.15;;
49392;SDS011;35268;42.642;23.308;2023-03-29T11:02:31;6.05;;;1.20;;
49392;SDS011;35268;42.642;23.308;2023-03-29T11:04:49;2.95;;;1.00;;
49392;SDS011;35268;42.642;23.308;2023-03-29T11:10:12;3.17;;;1.08;;
49392;SDS011;35268;42.642;23.308;2023-03-29T11:13:05;3.25;;;1.15;;
49392;SDS011;35268;42.642;23.308;2023-03-29T11:26:21;4.22;;;1.20;;
49392;SDS011;35268;42.642;23.308;2023-03-29T11:31:23;3.63;;;0.70;;
49392;SDS011;35268;42.642;23.308;2023-03-29T11:33:57;1.80;;;0.85;;
49392;SDS011;35268;42.642;23.308;2023-03-29T11:42:54;2.83;;;1.10;;
49392;SDS011;35268;42.642;23.308;2023-03-29T11:45:30;4.63;;;1.77;;
49392;SDS011;35268;42.642;23.308;2023-03-29T11:48:00;1.92;;;0.90;;
49392;SDS011;35268;42.642;23.308;2023-03-29T11:50:46;6.68;;;1.00;;
49392;SDS011;35268;42.642;23.308;2023-03-29T11:53:30;3.17;;;1.10;;
49392;SDS011;35268;42.642;23.308;2023-03-29T11:56:14;1.23;;;0.70;;
49392;SDS011;35268;42.642;23.308;2023-03-29T11:58:49;10.65;;;1.42;;
49392;SDS011;35268;42.642;23.308;2023-03-29T12:01:26;4.60;;;1.52;;
49392;SDS011;35268;42.642;23.308;2023-03-29T12:04:09;3.33;;;0.90;;
49392;SDS011;35268;42.642;23.308;2023-03-29T12:06:45;4.07;;;1.30;;
49392;SDS011;35268;42.642;23.308;2023-03-29T12:09:21;3.40;;;1.20;;
49392;SDS011;35268;42.642;23.308;2023-03-29T12:15:09;8.40;;;1.15;;
49392;SDS011;35268;42.642;23.308;2023-03-29T12:17:49;4.05;;;1.35;;
49392;SDS011;35268;42.642;23.308;2023-03-29T12:20:30;1.27;;;0.73;;
49392;SDS011;35268;42.642;23.308;2023-03-29T12:23:00;2.10;;;1.10;;
49392;SDS011;35268;42.642;23.308;2023-03-29T12:25:29;4.53;;;1.05;;
49392;SDS011;35268;42.642;23.308;2023-03-29T12:28:22;2.38;;;1.10;;
49392;SDS011;35268;42.642;23.308;2023-03-29T12:36:58;2.20;;;1.13;;
49392;SDS011;35268;42.642;23.308;2023-03-29T12:39:26;2.92;;;1.45;;
49392;SDS011;35268;42.642;23.308;2023-03-29T12:42:03;4.13;;;1.60;;
49392;SDS011;35268;42.642;23.308;2023-03-29T12:44:31;3.47;;;1.27;;
49392;SDS011;35268;42.642;23.308;2023-03-29T12:46:58;4.57;;;1.00;;
49392;SDS011;35268;42.642;23.308;2023-03-29T12:51:58;5.47;;;0.95;;
49392;SDS011;35268;42.642;23.308;2023-03-29T12:54:29;2.30;;;1.05;;
49392;SDS011;35268;42.642;23.308;2023-03-29T12:59:39;4.70;;;1.15;;
49392;SDS011;35268;42.642;23.308;2023-03-29T13:04:58;4.22;;;1.30;;
49392;SDS011;35268;42.642;23.308;2023-03-29T13:10:09;3.35;;;1.20;;
49392;SDS011;35268;42.642;23.308;2023-03-29T13:12:54;3.65;;;1.10;;
49392;SDS011;35268;42.642;23.308;2023-03-29T13:15:21;3.35;;;1.17;;
49392;SDS011;35268;42.642;23.308;2023-03-29T13:26:21;9.30;;;1.17;;
49392;SDS011;35268;42.642;23.308;2023-03-29T13:29:15;2.15;;;1.10;;
49392;SDS011;35268;42.642;23.308;2023-03-29T13:34:46;2.63;;;1.17;;
49392;SDS011;35268;42.642;23.308;2023-03-29T13:39:52;4.68;;;0.93;;
49392;SDS011;35268;42.642;23.308;2023-03-29T13:47:37;4.38;;;1.23;;
49392;SDS011;35268;42.642;23.308;2023-03-29T13:50:19;4.63;;;1.30;;
49392;SDS011;35268;42.642;23.308;2023-03-29T13:53:21;3.60;;;1.35;;
49392;SDS011;35268;42.642;23.308;2023-03-29T13:55:51;2.78;;;1.23;;
49392;SDS011;35268;42.642;23.308;2023-03-29T13:58:36;7.15;;;1.27;;
49392;SDS011;35268;42.642;23.308;2023-03-29T14:03:49;11.30;;;1.77;;
49392;SDS011;35268;42.642;23.308;2023-03-29T14:06:22;3.97;;;1.80;;
49392;SDS011;35268;42.642;23.308;2023-03-29T14:08:50;2.80;;;1.17;;
49392;SDS011;35268;42.642;23.308;2023-03-29T14:11:24;2.35;;;1.13;;
49392;SDS011;35268;42.642;23.308;2023-03-29T14:13:55;3.47;;;1.17;;
49392;SDS011;35268;42.642;23.308;2023-03-29T14:16:25;3.00;;;1.00;;
49392;SDS011;35268;42.642;23.308;2023-03-29T14:18:58;3.50;;;1.23;;
49392;SDS011;35268;42.642;23.308;2023-03-29T14:21:27;2.78;;;1.33;;
49392;SDS011;35268;42.642;23.308;2023-03-29T14:23:54;2.78;;;1.20;;
49392;SDS011;35268;42.642;23.308;2023-03-29T14:26:23;2.72;;;1.15;;
49392;SDS011;35268;42.642;23.308;2023-03-29T14:28:55;2.05;;;0.90;;
49392;SDS011;35268;42.642;23.308;2023-03-29T14:31:22;2.85;;;1.08;;
49392;SDS011;35268;42.642;23.308;2023-03-29T14:33:53;7.32;;;1.20;;
49392;SDS011;35268;42.642;23.308;2023-03-29T14:36:21;2.38;;;1.08;;
49392;SDS011;35268;42.642;23.308;2023-03-29T14:38:48;2.78;;;1.27;;
49392;SDS011;35268;42.642;23.308;2023-03-29T14:41:37;6.15;;;1.50;;
49392;SDS011;35268;42.642;23.308;2023-03-29T14:44:04;3.85;;;1.08;;
49392;SDS011;35268;42.642;23.308;2023-03-29T14:46:31;5.43;;;2.03;;
49392;SDS011;35268;42.642;23.308;2023-03-29T14:48:58;5.68;;;1.17;;
49392;SDS011;35268;42.642;23.308;2023-03-29T14:51:26;2.72;;;1.05;;
49392;SDS011;35268;42.642;23.308;2023-03-29T14:53:54;3.35;;;1.17;;
49392;SDS011;35268;42.642;23.308;2023-03-29T14:56:22;4.70;;;1.48;;
49392;SDS011;35268;42.642;23.308;2023-03-29T14:58:52;7.15;;;1.42;;
49392;SDS011;35268;42.642;23.308;2023-03-29T15:01:20;2.55;;;1.13;;
49392;SDS011;35268;42.642;23.308;2023-03-29T15:06:36;4.28;;;1.50;;
49392;SDS011;35268;42.642;23.308;2023-03-29T15:09:04;2.67;;;1.23;;
49392;SDS011;35268;42.642;23.308;2023-03-29T15:11:30;3.00;;;1.13;;
49392;SDS011;35268;42.642;23.308;2023-03-29T15:14:03;2.58;;;1.48;;
49392;SDS011;35268;42.642;23.308;2023-03-29T15:16:32;3.85;;;1.40;;
49392;SDS011;35268;42.642;23.308;2023-03-29T15:19:02;1.90;;;0.93;;
49392;SDS011;35268;42.642;23.308;2023-03-29T15:21:32;4.85;;;1.23;;
49392;SDS011;35268;42.642;23.308;2023-03-29T15:23:59;4.00;;;1.30;;
49392;SDS011;35268;42.642;23.308;2023-03-29T15:26:32;2.30;;;1.00;;
49392;SDS011;35268;42.642;23.308;2023-03-29T15:29:04;6.35;;;1.17;;
49392;SDS011;35268;42.642;23.308;2023-03-29T15:31:56;4.05;;;1.23;;
49392;SDS011;35268;42.642;23.308;2023-03-29T15:34:29;4.70;;;1.52;;
49392;SDS011;35268;42.642;23.308;2023-03-29T15:36:56;2.78;;;1.42;;
49392;SDS011;35268;42.642;23.308;2023-03-29T15:39:22;6.78;;;1.95;;
49392;SDS011;35268;42.642;23.308;2023-03-29T15:41:49;3.08;;;1.17;;
49392;SDS011;35268;42.642;23.308;2023-03-29T15:44:19;3.83;;;1.23;;
49392;SDS011;35268;42.642;23.308;2023-03-29T15:46:50;4.03;;;1.35;;
49392;SDS011;35268;42.642;23.308;2023-03-29T15:49:15;4.57;;;1.05;;
49392;SDS011;35268;42.642;23.308;2023-03-29T15:51:41;3.25;;;1.20;;
49392;SDS011;35268;42.642;23.308;2023-03-29T15:54:06;2.97;;;0.85;;
49392;SDS011;35268;42.642;23.308;2023-03-29T15:56:33;3.95;;;1.08;;
49392;SDS011;35268;42.642;23.308;2023-03-29T15:59:04;2.78;;;0.82;;
49392;SDS011;35268;42.642;23.308;2023-03-29T16:01:30;1.77;;;0.88;;
49392;SDS011;35268;42.642;23.308;2023-03-29T16:06:31;2.67;;;1.00;;
49392;SDS011;35268;42.642;23.308;2023-03-29T16:08:57;2.13;;;1.00;;
49392;SDS011;35268;42.642;23.308;2023-03-29T16:11:23;7.72;;;1.33;;
49392;SDS011;35268;42.642;23.308;2023-03-29T16:13:49;3.13;;;1.40;;
49392;SDS011;35268;42.642;23.308;2023-03-29T16:16:15;4.68;;;1.75;;
49392;SDS011;35268;42.642;23.308;2023-03-29T16:18:41;4.18;;;1.60;;
49392;SDS011;35268;42.642;23.308;2023-03-29T16:21:09;4.57;;;1.70;;
49392;SDS011;35268;42.642;23.308;2023-03-29T16:23:37;7.13;;;2.40;;
49392;SDS011;35268;42.642;23.308;2023-03-29T16:26:03;9.60;;;1.83;;
49392;SDS011;35268;42.642;23.308;2023-03-29T16:28:28;5.68;;;1.80;;
49392;SDS011;35268;42.642;23.308;2023-03-29T16:30:54;6.25;;;2.28;;
49392;SDS011;35268;42.642;23.308;2023-03-29T16:33:20;2.30;;;1.40;;
49392;SDS011;35268;42.642;23.308;2023-03-29T16:35:45;2.90;;;1.42;;
49392;SDS011;35268;42.642;23.308;2023-03-29T16:38:11;3.53;;;1.48;;
49392;SDS011;35268;42.642;23.308;2023-03-29T16:40:37;4.28;;;1.52;;
49392;SDS011;35268;42.642;23.308;2023-03-29T16:43:02;3.50;;;1.30;;
49392;SDS011;35268;42.642;23.308;2023-03-29T16:45:28;4.22;;;1.58;;